createdAt,value
2023-05-14T00:01:00.019Z,16.40
2023-05-14T00:03:28.021Z,17.73
2023-05-14T00:05:55.831Z,15.17
2023-05-14T00:08:23.627Z,14.23
2023-05-14T00:10:51.371Z,16.03
2023-05-14T00:13:19.189Z,18.87
2023-05-14T00:15:46.969Z,17.87
2023-05-14T00:18:16.185Z,17.47
2023-05-14T00:20:44.245Z,15.00
2023-05-14T00:23:12.292Z,14.97
2023-05-14T00:25:40.077Z,15.77
2023-05-14T00:28:07.862Z,14.37
2023-05-14T00:30:35.873Z,19.97
2023-05-14T00:33:03.706Z,14.47
2023-05-14T00:35:35.316Z,13.43
2023-05-14T00:38:03.369Z,18.47
2023-05-14T00:40:31.229Z,16.63
2023-05-14T00:42:59.026Z,13.50
2023-05-14T00:45:27.023Z,15.60
2023-05-14T00:47:55.169Z,15.53
2023-05-14T00:50:24.173Z,18.90
2023-05-14T00:52:53.668Z,15.43
2023-05-14T00:55:22.943Z,15.47
2023-05-14T00:57:52.058Z,15.57
2023-05-14T01:00:20.274Z,15.60
2023-05-14T01:02:48.141Z,18.67
2023-05-14T01:05:16.155Z,15.30
2023-05-14T01:07:53.283Z,17.37
2023-05-14T01:10:26.354Z,18.80
2023-05-14T01:13:03.522Z,14.77
2023-05-14T01:15:33.214Z,22.40
2023-05-14T01:18:05.061Z,16.23
2023-05-14T01:20:32.968Z,14.67
2023-05-14T01:23:02.148Z,19.93
2023-05-14T01:25:30.968Z,15.17
2023-05-14T01:28:07.554Z,14.37
2023-05-14T01:30:38.437Z,16.23
2023-05-14T01:33:10.060Z,17.47
2023-05-14T01:35:38.294Z,16.57
2023-05-14T01:38:11.710Z,20.40
2023-05-14T01:40:40.470Z,16.93
2023-05-14T01:43:08.713Z,14.63
2023-05-14T01:45:37.252Z,17.07
2023-05-14T01:48:05.589Z,15.00
2023-05-14T01:50:33.872Z,15.80
2023-05-14T01:53:01.706Z,17.37
2023-05-14T01:55:30.822Z,13.77
2023-05-14T01:57:58.631Z,15.97
2023-05-14T02:00:26.856Z,16.20
2023-05-14T02:02:54.800Z,18.90
2023-05-14T02:05:22.625Z,14.03
2023-05-14T02:07:50.529Z,15.93
2023-05-14T02:10:18.320Z,17.30
2023-05-14T02:12:47.477Z,16.27
2023-05-14T02:15:15.319Z,19.83
2023-05-14T02:17:43.153Z,15.73
2023-05-14T02:20:11.922Z,18.27
2023-05-14T02:22:42.287Z,16.37
2023-05-14T02:25:11.445Z,15.70
2023-05-14T02:27:39.205Z,16.67
2023-05-14T02:30:09.797Z,16.13
2023-05-14T02:32:38.191Z,17.23
2023-05-14T02:35:06.919Z,18.03
2023-05-14T02:37:34.781Z,18.37
2023-05-14T02:40:02.644Z,16.40
2023-05-14T02:42:31.521Z,13.30
2023-05-14T02:44:59.697Z,15.80
2023-05-14T02:47:28.858Z,12.40
2023-05-14T02:49:56.613Z,15.37
2023-05-14T02:52:24.343Z,13.77
2023-05-14T02:54:52.110Z,19.07
2023-05-14T02:57:19.800Z,15.47
2023-05-14T02:59:47.539Z,14.57
2023-05-14T03:02:15.693Z,15.57
2023-05-14T03:04:45.175Z,14.30
2023-05-14T03:07:13.101Z,16.90
2023-05-14T03:09:40.873Z,13.63
2023-05-14T03:12:09.282Z,20.07
2023-05-14T03:14:36.948Z,17.47
2023-05-14T03:17:05.065Z,15.17
2023-05-14T03:19:32.940Z,17.07
2023-05-14T03:22:02.093Z,12.73
2023-05-14T03:24:29.850Z,15.67
2023-05-14T03:26:57.540Z,14.27
2023-05-14T03:29:25.394Z,17.23
2023-05-14T03:31:54.371Z,17.03
2023-05-14T03:34:22.444Z,15.20
2023-05-14T03:36:50.485Z,19.10
2023-05-14T03:39:20.168Z,11.93
2023-05-14T03:41:48.557Z,14.60
2023-05-14T03:44:16.586Z,17.37
2023-05-14T03:46:44.432Z,10.53
2023-05-14T03:49:12.357Z,14.13
2023-05-14T03:51:40.404Z,15.60
2023-05-14T03:54:08.251Z,12.37
2023-05-14T03:56:37.429Z,12.87
2023-05-14T03:59:05.121Z,16.40
2023-05-14T04:01:32.948Z,13.70
2023-05-14T04:04:00.798Z,15.50
2023-05-14T04:06:28.580Z,13.27
2023-05-14T04:08:56.295Z,15.77
2023-05-14T04:11:24.097Z,17.97
2023-05-14T04:13:53.309Z,15.23
2023-05-14T04:16:21.277Z,15.83
2023-05-14T04:18:49.217Z,12.87
2023-05-14T04:21:17.061Z,11.70
2023-05-14T04:23:44.762Z,10.20
2023-05-14T04:26:12.564Z,12.70
2023-05-14T04:28:40.568Z,14.10
2023-05-14T04:31:09.719Z,17.10
2023-05-14T04:33:37.489Z,12.60
2023-05-14T04:36:06.453Z,12.90
2023-05-14T04:38:34.267Z,14.07
2023-05-14T04:41:02.158Z,14.63
2023-05-14T04:43:29.967Z,15.67
2023-05-14T04:45:57.793Z,11.03
2023-05-14T04:48:27.209Z,15.70
2023-05-14T04:50:55.008Z,12.67
2023-05-14T04:53:22.742Z,16.83
2023-05-14T04:55:50.638Z,14.10
2023-05-14T04:58:18.377Z,13.03
2023-05-14T05:00:46.158Z,16.53
2023-05-14T05:03:14.030Z,17.13
2023-05-14T05:05:43.452Z,16.57
2023-05-14T05:08:11.794Z,15.53
2023-05-14T05:10:39.590Z,16.70
2023-05-14T05:13:07.335Z,18.43
2023-05-14T05:15:35.302Z,16.60
2023-05-14T05:18:03.316Z,15.77
2023-05-14T05:20:31.152Z,17.00
2023-05-14T05:23:00.628Z,20.73
2023-05-14T05:25:28.692Z,22.00
2023-05-14T05:27:56.948Z,20.20
2023-05-14T05:30:25.075Z,18.50
2023-05-14T05:32:53.133Z,16.97
2023-05-14T05:35:21.226Z,19.53
2023-05-14T05:37:49.120Z,23.10
2023-05-14T05:40:19.070Z,21.33
2023-05-14T05:42:46.928Z,21.33
2023-05-14T05:45:14.625Z,20.20
2023-05-14T05:47:42.436Z,20.03
2023-05-14T05:50:11.102Z,23.80
2023-05-14T05:52:39.068Z,21.70
2023-05-14T05:55:07.907Z,22.30
2023-05-14T05:57:37.286Z,23.50
2023-05-14T06:00:12.893Z,23.67
2023-05-14T06:02:40.922Z,23.70
2023-05-14T06:05:09.769Z,23.50
2023-05-14T06:07:37.746Z,26.27
2023-05-14T06:10:06.428Z,21.10
2023-05-14T06:12:34.212Z,20.50
2023-05-14T06:15:03.396Z,18.57
2023-05-14T06:17:31.166Z,22.27
2023-05-14T06:19:59.337Z,21.30
2023-05-14T06:22:27.415Z,21.37
2023-05-14T06:24:55.184Z,21.73
2023-05-14T06:27:23.118Z,21.97
2023-05-14T06:29:50.954Z,19.40
2023-05-14T06:32:20.210Z,20.73
2023-05-14T06:34:48.408Z,20.27
2023-05-14T06:37:16.210Z,17.93
2023-05-14T06:39:48.191Z,17.63
2023-05-14T06:42:15.908Z,18.53
2023-05-14T06:44:43.894Z,17.37
2023-05-14T06:47:11.824Z,16.93
2023-05-14T06:49:41.036Z,14.77
2023-05-14T06:52:09.367Z,12.60
2023-05-14T06:54:37.162Z,15.33
2023-05-14T06:57:05.338Z,14.50
2023-05-14T06:59:33.288Z,13.57
2023-05-14T07:02:01.352Z,12.80
2023-05-14T07:04:29.270Z,11.27
2023-05-14T07:06:58.492Z,10.97
2023-05-14T07:09:26.423Z,14.30
2023-05-14T07:11:54.230Z,14.80
2023-05-14T07:14:22.318Z,14.10
2023-05-14T07:16:50.113Z,17.13
2023-05-14T07:19:17.971Z,11.40
2023-05-14T07:21:45.693Z,11.67
2023-05-14T07:24:14.802Z,12.97
2023-05-14T07:26:42.666Z,14.67
2023-05-14T07:29:10.432Z,14.27
2023-05-14T07:31:38.290Z,9.93
2023-05-14T07:34:06.135Z,10.40
2023-05-14T07:36:33.939Z,17.37
2023-05-14T07:39:01.887Z,16.67
2023-05-14T07:41:31.056Z,11.57
2023-05-14T07:43:58.860Z,13.33
2023-05-14T07:46:26.859Z,11.70
2023-05-14T07:48:54.697Z,11.77
2023-05-14T07:51:23.182Z,13.20
2023-05-14T07:53:50.979Z,15.80
2023-05-14T07:56:18.710Z,9.07
2023-05-14T07:58:47.804Z,11.37
2023-05-14T08:01:15.984Z,12.53
2023-05-14T08:03:43.882Z,9.77
2023-05-14T08:06:11.740Z,12.17
2023-05-14T08:08:39.529Z,9.57
2023-05-14T08:11:07.337Z,9.13
2023-05-14T08:13:35.071Z,10.23
2023-05-14T08:16:04.369Z,11.93
2023-05-14T08:18:32.167Z,13.47
2023-05-14T08:21:01.034Z,11.10
2023-05-14T08:23:30.023Z,10.60
2023-05-14T08:25:57.802Z,9.47
2023-05-14T08:28:25.860Z,9.50
2023-05-14T08:30:53.744Z,8.77
2023-05-14T08:33:22.856Z,8.37
2023-05-14T08:35:51.815Z,7.83
2023-05-14T08:38:19.632Z,10.90
2023-05-14T08:40:49.851Z,10.43
2023-05-14T08:43:21.894Z,9.60
2023-05-14T08:45:53.434Z,8.50
2023-05-14T08:48:24.531Z,10.87
2023-05-14T08:50:52.637Z,8.73
2023-05-14T08:53:23.223Z,8.30
2023-05-14T08:55:52.202Z,11.67
2023-05-14T08:58:19.969Z,7.93
2023-05-14T09:00:47.978Z,6.27
2023-05-14T09:03:16.756Z,10.17
2023-05-14T09:05:47.409Z,9.17
2023-05-14T09:08:15.624Z,7.50
2023-05-14T09:10:43.507Z,7.30
2023-05-14T09:13:11.395Z,6.67
2023-05-14T09:15:41.367Z,8.13
2023-05-14T09:18:09.397Z,7.67
2023-05-14T09:20:37.383Z,16.20
2023-05-14T09:23:06.561Z,11.83
2023-05-14T09:25:34.523Z,11.17
2023-05-14T09:28:07.235Z,11.17
2023-05-14T09:30:37.047Z,13.83
2023-05-14T09:33:05.167Z,10.10
2023-05-14T09:35:33.452Z,9.80
2023-05-14T09:38:01.219Z,10.03
2023-05-14T09:40:30.287Z,13.90
2023-05-14T09:42:58.297Z,13.87
2023-05-14T09:45:26.330Z,12.50
2023-05-14T09:47:54.369Z,9.87
2023-05-14T09:50:22.936Z,8.87
2023-05-14T09:52:50.975Z,12.27
2023-05-14T09:55:19.409Z,13.03
2023-05-14T09:57:48.556Z,13.03
2023-05-14T10:00:17.170Z,9.93
2023-05-14T10:02:48.248Z,12.23
2023-05-14T10:05:16.683Z,12.27
2023-05-14T10:07:49.121Z,10.37
2023-05-14T10:10:19.684Z,10.03
2023-05-14T10:12:53.950Z,11.97
2023-05-14T10:15:25.079Z,10.97
2023-05-14T10:17:57.701Z,9.40
2023-05-14T10:20:27.538Z,10.13
2023-05-14T10:22:55.665Z,11.13
2023-05-14T10:25:24.127Z,10.07
2023-05-14T10:27:54.078Z,8.57
2023-05-14T10:30:23.954Z,11.20
2023-05-14T10:33:07.339Z,8.60
2023-05-14T10:35:52.845Z,10.77
2023-05-14T10:38:24.309Z,10.23
2023-05-14T10:40:54.093Z,10.67
2023-05-14T10:43:26.200Z,11.93
2023-05-14T10:45:54.628Z,10.93
2023-05-14T10:48:22.808Z,9.30
2023-05-14T10:50:52.325Z,7.77
2023-05-14T10:53:21.109Z,10.03
2023-05-14T10:55:48.910Z,8.97
2023-05-14T10:58:17.080Z,7.47
2023-05-14T11:00:49.847Z,14.30
2023-05-14T11:03:19.357Z,10.23
2023-05-14T11:05:47.799Z,7.97
2023-05-14T11:08:15.936Z,11.07
2023-05-14T11:10:44.266Z,7.87
2023-05-14T11:13:12.987Z,6.97
2023-05-14T11:15:47.136Z,12.57
2023-05-14T11:18:27.642Z,10.87
2023-05-14T11:20:55.598Z,9.13
2023-05-14T11:23:26.530Z,12.93
2023-05-14T11:25:54.895Z,7.77
2023-05-14T11:28:23.249Z,8.80
2023-05-14T11:30:51.342Z,9.33
2023-05-14T11:33:21.458Z,10.37
2023-05-14T11:35:49.696Z,10.63
2023-05-14T11:38:18.405Z,10.27
2023-05-14T11:40:53.443Z,10.23
2023-05-14T11:43:23.714Z,7.93
2023-05-14T11:45:52.678Z,12.40
2023-05-14T11:48:22.337Z,10.27
2023-05-14T11:50:51.425Z,7.37
2023-05-14T11:53:20.161Z,8.13
2023-05-14T11:55:48.427Z,9.47
2023-05-14T11:58:17.061Z,8.33
2023-05-14T12:00:45.768Z,7.83
2023-05-14T12:03:13.807Z,10.17
2023-05-14T12:05:56.199Z,8.73
2023-05-14T12:08:27.061Z,12.30
2023-05-14T12:10:55.227Z,9.23
2023-05-14T12:13:23.239Z,8.80
2023-05-14T12:15:57.179Z,7.27
2023-05-14T12:18:26.602Z,8.03
2023-05-14T12:20:56.259Z,7.90
2023-05-14T12:23:27.695Z,9.70
2023-05-14T12:25:55.475Z,9.80
2023-05-14T12:28:24.453Z,10.97
2023-05-14T12:30:57.687Z,9.23
2023-05-14T12:33:26.645Z,11.67
2023-05-14T12:35:58.950Z,7.47
2023-05-14T12:38:28.672Z,9.83
2023-05-14T12:40:56.864Z,6.17
2023-05-14T12:43:24.631Z,8.73
2023-05-14T12:45:52.563Z,7.00
2023-05-14T12:48:20.430Z,9.60
2023-05-14T12:50:48.823Z,7.10
2023-05-14T12:53:18.174Z,9.60
2023-05-14T12:55:45.988Z,7.23
2023-05-14T12:58:13.777Z,10.33
2023-05-14T13:00:41.556Z,7.83
2023-05-14T13:03:09.438Z,10.13
2023-05-14T13:05:37.278Z,5.97
2023-05-14T13:08:05.301Z,7.40
2023-05-14T13:10:34.400Z,7.67
2023-05-14T13:13:02.824Z,9.57
2023-05-14T13:15:32.738Z,8.07
2023-05-14T13:18:00.752Z,9.20
2023-05-14T13:20:29.543Z,7.67
2023-05-14T13:22:57.292Z,10.30
2023-05-14T13:25:25.341Z,10.47
2023-05-14T13:27:54.824Z,8.70
2023-05-14T13:30:22.584Z,9.47
2023-05-14T13:32:50.414Z,6.73
2023-05-14T13:35:18.318Z,7.27
2023-05-14T13:37:46.161Z,9.23
2023-05-14T13:40:14.491Z,9.17
2023-05-14T13:42:42.404Z,10.53
2023-05-14T13:45:12.994Z,7.63
2023-05-14T13:47:41.265Z,8.80
2023-05-14T13:50:09.825Z,8.40
2023-05-14T13:52:39.046Z,10.17
2023-05-14T13:55:08.220Z,11.83
2023-05-14T13:57:35.994Z,7.40
2023-05-14T14:00:05.066Z,12.27
2023-05-14T14:02:34.489Z,10.07
2023-05-14T14:05:02.316Z,10.83
2023-05-14T14:07:30.295Z,6.73
2023-05-14T14:09:58.017Z,8.33
2023-05-14T14:12:26.734Z,7.03
2023-05-14T14:14:55.285Z,10.20
2023-05-14T14:17:23.147Z,8.47
2023-05-14T14:19:52.572Z,8.97
2023-05-14T14:22:20.562Z,9.53
2023-05-14T14:24:48.338Z,7.17
2023-05-14T14:27:16.224Z,9.63
2023-05-14T14:29:44.203Z,7.07
2023-05-14T14:32:11.991Z,6.60
2023-05-14T14:34:39.790Z,6.43
2023-05-14T14:37:09.032Z,6.40
2023-05-14T14:39:36.899Z,6.63
2023-05-14T14:42:05.220Z,8.30
2023-05-14T14:44:32.938Z,9.67
2023-05-14T14:47:00.703Z,7.77
2023-05-14T14:49:28.858Z,7.67
2023-05-14T14:51:56.617Z,9.33
2023-05-14T14:54:25.879Z,6.70
2023-05-14T14:56:53.819Z,6.23
2023-05-14T14:59:21.577Z,7.50
2023-05-14T15:01:49.517Z,9.03
2023-05-14T15:04:17.380Z,12.00
2023-05-14T15:06:45.102Z,10.33
2023-05-14T15:09:12.927Z,4.97
2023-05-14T15:11:42.099Z,6.37
2023-05-14T15:14:10.004Z,7.77
2023-05-14T15:16:37.796Z,7.00
2023-05-14T15:19:05.674Z,7.37
2023-05-14T15:21:33.478Z,8.00
2023-05-14T15:24:01.320Z,7.87
2023-05-14T15:26:29.358Z,7.57
2023-05-14T15:28:59.105Z,5.07
2023-05-14T15:31:27.022Z,6.53
2023-05-14T15:33:56.061Z,7.47
2023-05-14T15:36:23.992Z,6.03
2023-05-14T15:38:51.789Z,9.60
2023-05-14T15:41:19.505Z,5.63
2023-05-14T15:43:47.261Z,8.60
2023-05-14T15:46:16.497Z,11.40
2023-05-14T15:48:44.372Z,8.07
2023-05-14T15:51:12.237Z,7.33
2023-05-14T15:53:40.035Z,8.20
2023-05-14T15:56:09.000Z,7.43
2023-05-14T15:58:36.719Z,5.40
2023-05-14T16:01:04.513Z,7.87
2023-05-14T16:03:33.773Z,8.57
2023-05-14T16:06:01.717Z,4.63
2023-05-14T16:08:29.759Z,6.00
2023-05-14T16:10:57.557Z,6.17
2023-05-14T16:13:26.481Z,6.30
2023-05-14T16:15:54.569Z,7.33
2023-05-14T16:18:22.503Z,7.10
2023-05-14T16:20:51.999Z,6.90
2023-05-14T16:23:19.829Z,6.47
2023-05-14T16:25:47.955Z,7.17
2023-05-14T16:28:15.925Z,8.67
2023-05-14T16:30:43.787Z,7.33
2023-05-14T16:33:11.870Z,9.87
2023-05-14T16:35:40.420Z,8.80
2023-05-14T16:38:09.573Z,6.23
2023-05-14T16:40:37.393Z,5.80
2023-05-14T16:43:05.432Z,6.03
2023-05-14T16:45:34.902Z,7.30
2023-05-14T16:48:02.843Z,6.40
2023-05-14T16:50:30.772Z,6.87
2023-05-14T16:52:58.594Z,7.30
2023-05-14T16:55:27.801Z,8.07
2023-05-14T16:57:55.686Z,4.23
2023-05-14T17:00:23.632Z,6.30
2023-05-14T17:02:54.111Z,5.63
2023-05-14T17:05:22.136Z,5.53
2023-05-14T17:07:50.143Z,6.67
2023-05-14T17:10:18.254Z,6.13
2023-05-14T17:12:47.534Z,8.43
2023-05-14T17:15:15.361Z,6.17
2023-05-14T17:17:43.274Z,4.90
2023-05-14T17:20:11.937Z,4.80
2023-05-14T17:22:39.787Z,5.77
2023-05-14T17:25:08.821Z,4.13
2023-05-14T17:27:36.792Z,5.23
2023-05-14T17:30:07.216Z,6.40
2023-05-14T17:32:35.232Z,4.60
2023-05-14T17:35:03.109Z,4.80
2023-05-14T17:37:31.057Z,7.13
2023-05-14T17:39:58.782Z,6.07
2023-05-14T17:42:26.701Z,8.50
2023-05-14T17:44:54.859Z,5.20
2023-05-14T17:47:24.172Z,4.90
2023-05-14T17:49:52.151Z,8.33
2023-05-14T17:52:20.094Z,5.30
2023-05-14T17:54:47.883Z,5.07
2023-05-14T17:57:15.743Z,4.37
2023-05-14T17:59:43.523Z,6.33
2023-05-14T18:02:11.996Z,7.27
2023-05-14T18:04:41.093Z,3.90
2023-05-14T18:07:09.000Z,6.33
2023-05-14T18:09:36.713Z,6.17
2023-05-14T18:12:04.819Z,5.47
2023-05-14T18:14:32.633Z,5.60
2023-05-14T18:17:00.472Z,5.67
2023-05-14T18:19:28.307Z,10.87
2023-05-14T18:21:57.401Z,6.53
2023-05-14T18:24:25.243Z,7.73
2023-05-14T18:26:53.064Z,9.13
2023-05-14T18:29:20.858Z,7.53
2023-05-14T18:31:48.626Z,6.40
2023-05-14T18:34:16.982Z,5.63
2023-05-14T18:36:44.735Z,7.27
2023-05-14T18:39:13.923Z,5.30
2023-05-14T18:41:41.827Z,6.57
2023-05-14T18:44:09.636Z,8.90
2023-05-14T18:46:37.503Z,4.80
2023-05-14T18:49:05.328Z,4.83
2023-05-14T18:51:33.112Z,7.50
2023-05-14T18:54:00.909Z,6.10
2023-05-14T18:56:30.800Z,6.17
2023-05-14T18:58:58.725Z,6.83
2023-05-14T19:01:26.632Z,6.57
2023-05-14T19:03:54.964Z,5.57
2023-05-14T19:06:23.226Z,7.03
2023-05-14T19:08:53.998Z,7.30
2023-05-14T19:11:25.328Z,7.37
2023-05-14T19:13:54.875Z,10.50
2023-05-14T19:16:23.199Z,7.10
2023-05-14T19:18:51.075Z,6.90
2023-05-14T19:21:19.083Z,6.33
2023-05-14T19:23:46.979Z,7.70
2023-05-14T19:26:14.731Z,5.07
2023-05-14T19:28:42.692Z,9.20
2023-05-14T19:31:12.144Z,8.33
2023-05-14T19:33:39.955Z,8.73
2023-05-14T19:36:08.008Z,9.47
2023-05-14T19:38:36.186Z,10.27
2023-05-14T19:41:04.167Z,7.23
2023-05-14T19:43:31.963Z,9.20
2023-05-14T19:46:01.656Z,7.97
2023-05-14T19:48:31.341Z,7.60
2023-05-14T19:50:59.271Z,6.63
2023-05-14T19:53:29.848Z,9.57
2023-05-14T19:55:58.048Z,9.77
2023-05-14T19:58:26.695Z,13.73
2023-05-14T20:00:57.238Z,11.27
2023-05-14T20:03:26.595Z,8.17
2023-05-14T20:05:56.537Z,10.13
2023-05-14T20:08:24.990Z,8.43
2023-05-14T20:10:53.037Z,11.23
2023-05-14T20:13:21.868Z,10.87
2023-05-14T20:15:51.219Z,9.30
2023-05-14T20:18:19.017Z,8.73
2023-05-14T20:20:46.967Z,10.10
2023-05-14T20:23:16.145Z,11.07
2023-05-14T20:25:44.287Z,8.27
2023-05-14T20:28:12.104Z,11.67
2023-05-14T20:30:40.159Z,11.80
2023-05-14T20:33:08.182Z,13.00
2023-05-14T20:35:36.127Z,14.80
2023-05-14T20:38:04.465Z,12.47
2023-05-14T20:40:33.551Z,11.13
2023-05-14T20:43:01.804Z,16.10
2023-05-14T20:45:29.579Z,12.83
2023-05-14T20:47:57.432Z,11.60
2023-05-14T20:50:27.066Z,11.43
2023-05-14T20:52:55.058Z,12.20
2023-05-14T20:55:23.011Z,13.23
2023-05-14T20:57:52.586Z,13.53
2023-05-14T21:00:21.030Z,13.80
2023-05-14T21:02:49.142Z,11.83
2023-05-14T21:05:17.783Z,12.77
2023-05-14T21:07:45.544Z,13.10
2023-05-14T21:10:13.318Z,12.37
2023-05-14T21:12:42.641Z,12.57
2023-05-14T21:15:13.167Z,13.70
2023-05-14T21:17:40.995Z,14.23
2023-05-14T21:20:11.950Z,14.30
2023-05-14T21:22:39.835Z,14.13
2023-05-14T21:25:08.140Z,14.20
2023-05-14T21:27:36.120Z,12.50
2023-05-14T21:30:04.108Z,12.47
2023-05-14T21:32:33.266Z,11.57
2023-05-14T21:35:00.917Z,11.10
2023-05-14T21:37:28.855Z,13.10
2023-05-14T21:39:56.698Z,14.97
2023-05-14T21:42:24.534Z,14.00
2023-05-14T21:44:52.311Z,12.37
2023-05-14T21:47:21.115Z,12.53
2023-05-14T21:49:50.329Z,14.30
2023-05-14T21:52:18.082Z,13.20
2023-05-14T21:54:45.824Z,11.77
2023-05-14T21:57:13.567Z,13.00
2023-05-14T21:59:41.474Z,12.73
2023-05-14T22:02:09.242Z,12.17
2023-05-14T22:04:37.082Z,11.63
2023-05-14T22:07:06.415Z,15.10
2023-05-14T22:09:34.239Z,14.93
2023-05-14T22:12:02.025Z,13.83
2023-05-14T22:14:29.793Z,15.53
2023-05-14T22:16:57.792Z,17.10
2023-05-14T22:19:26.847Z,15.90
2023-05-14T22:21:54.899Z,17.70
2023-05-14T22:24:23.956Z,19.03
2023-05-14T22:26:51.774Z,19.10
2023-05-14T22:29:19.530Z,17.43
2023-05-14T22:31:47.399Z,20.73
2023-05-14T22:34:15.240Z,16.37
2023-05-14T22:36:43.029Z,20.40
2023-05-14T22:39:12.678Z,18.40
2023-05-14T22:41:42.600Z,19.43
2023-05-14T22:44:10.443Z,20.93
2023-05-14T22:46:38.317Z,22.37
2023-05-14T22:49:06.380Z,24.13
2023-05-14T22:51:34.211Z,21.53
2023-05-14T22:54:02.033Z,21.90
2023-05-14T22:56:29.869Z,22.87
2023-05-14T22:59:00.281Z,23.03
2023-05-14T23:01:28.363Z,24.57
2023-05-14T23:03:56.482Z,22.57
2023-05-14T23:06:26.433Z,21.93
2023-05-14T23:08:54.163Z,19.77
2023-05-14T23:11:22.459Z,22.60
2023-05-14T23:13:50.284Z,21.50
2023-05-14T23:16:19.504Z,22.30
2023-05-14T23:18:47.694Z,20.53
2023-05-14T23:21:15.709Z,19.90
2023-05-14T23:23:43.479Z,22.97
2023-05-14T23:26:11.280Z,22.77
2023-05-14T23:28:39.121Z,19.20
2023-05-14T23:31:06.972Z,18.60
2023-05-14T23:33:36.051Z,18.73
2023-05-14T23:36:04.414Z,22.67
2023-05-14T23:38:32.291Z,24.13
2023-05-14T23:41:00.126Z,21.30
2023-05-14T23:43:27.879Z,18.67
2023-05-14T23:45:55.910Z,19.00
2023-05-14T23:48:23.768Z,22.63
2023-05-14T23:50:53.069Z,21.83
2023-05-14T23:53:20.990Z,21.03
2023-05-14T23:55:48.817Z,24.13
2023-05-14T23:58:16.619Z,18.83
